Airport View

Enter AWOS ICAO identifier for current METAR.

ex. KFNL

K20V 112211Z AUTO 00000KT 10SM SCT110 M01/M08 A3011 RMK AO2

11 Dec 2019 22:35

Frequency: 118.425

Phone: 970-724-9659

Other Area AWOS: KGNB - KC07 - K0CO - KEGE

TAF KEGE 111739Z 1118/1218 00000KT P6SM FEW120 FM111900 25003KT P6SM SCT080 BKN200 FM120300 11003KT P6SM FEW050 FEW200 FM121000 00000KT P6SM FEW070 FEW120